sensor_id;sensor_type;location;lat;lon;timestamp;pressure;altitude;pressure_sealevel;temperature;humidity
44198;BME280;30157;55.512;37.764;2023-01-04T00:00:10;98492.72;;;-0.96;96.23
44198;BME280;30157;55.512;37.764;2023-01-04T00:02:36;98565.81;;;-0.51;95.96
44198;BME280;30157;55.512;37.764;2023-01-04T00:05:05;98489.31;;;-0.98;95.82
44198;BME280;30157;55.512;37.764;2023-01-04T00:07:31;98497.94;;;-0.91;95.65
44198;BME280;30157;55.512;37.764;2023-01-04T00:09:56;98559.75;;;-0.57;95.60
44198;BME280;30157;55.512;37.764;2023-01-04T00:12:22;98592.28;;;-0.44;95.84
44198;BME280;30157;55.512;37.764;2023-01-04T00:14:48;98624.13;;;-0.23;96.06
44198;BME280;30157;55.512;37.764;2023-01-04T00:17:14;98598.44;;;-0.32;95.74
44198;BME280;30157;55.512;37.764;2023-01-04T00:19:39;98586.44;;;-0.40;95.52
44198;BME280;30157;55.512;37.764;2023-01-04T00:22:05;98580.41;;;-0.43;95.42
44198;BME280;30157;55.512;37.764;2023-01-04T00:24:31;98598.44;;;-0.34;95.13
44198;BME280;30157;55.512;37.764;2023-01-04T00:26:57;98642.16;;;-0.14;95.42
44198;BME280;30157;55.512;37.764;2023-01-04T00:29:22;98607.00;;;-0.30;94.94
44198;BME280;30157;55.512;37.764;2023-01-04T00:31:48;98618.22;;;-0.21;94.56
44198;BME280;30157;55.512;37.764;2023-01-04T00:34:15;98644.91;;;-0.05;94.55
44198;BME280;30157;55.512;37.764;2023-01-04T00:36:42;98648.25;;;-0.07;94.41
44198;BME280;30157;55.512;37.764;2023-01-04T00:39:12;98526.91;;;-0.86;94.35
44198;BME280;30157;55.512;37.764;2023-01-04T00:41:42;98652.56;;;-0.05;94.33
44198;BME280;30157;55.512;37.764;2023-01-04T00:44:09;98650.03;;;-0.02;93.83
44198;BME280;30157;55.512;37.764;2023-01-04T00:46:35;98656.06;;;0.01;93.50
44198;BME280;30157;55.512;37.764;2023-01-04T00:49:02;98649.13;;;-0.07;93.22
44198;BME280;30157;55.512;37.764;2023-01-04T00:51:29;98561.47;;;-0.56;93.32
44198;BME280;30157;55.512;37.764;2023-01-04T00:53:56;98665.34;;;-0.03;93.19
44198;BME280;30157;55.512;37.764;2023-01-04T00:56:22;98651.56;;;-0.11;92.44
44198;BME280;30157;55.512;37.764;2023-01-04T00:58:48;98574.19;;;-0.58;92.45
44198;BME280;30157;55.512;37.764;2023-01-04T01:01:13;98683.28;;;0.00;92.34
44198;BME280;30157;55.512;37.764;2023-01-04T01:03:39;98542.41;;;-0.75;92.03
44198;BME280;30157;55.512;37.764;2023-01-04T01:06:06;98680.78;;;0.03;92.12
44198;BME280;30157;55.512;37.764;2023-01-04T01:08:33;98563.88;;;-0.64;91.49
44198;BME280;30157;55.512;37.764;2023-01-04T01:11:07;98660.19;;;-0.06;90.80
44198;BME280;30157;55.512;37.764;2023-01-04T01:13:34;98687.59;;;0.04;90.69
44198;BME280;30157;55.512;37.764;2023-01-04T01:16:07;98577.50;;;-0.62;90.83
44198;BME280;30157;55.512;37.764;2023-01-04T01:18:34;98667.84;;;-0.06;91.30
44198;BME280;30157;55.512;37.764;2023-01-04T01:21:04;98681.44;;;-0.06;91.50
44198;BME280;30157;55.512;37.764;2023-01-04T01:23:30;98676.84;;;-0.24;92.40
44198;BME280;30157;55.512;37.764;2023-01-04T01:26:05;98696.47;;;-0.20;92.74
44198;BME280;30157;55.512;37.764;2023-01-04T01:28:31;98699.81;;;-0.22;93.48
44198;BME280;30157;55.512;37.764;2023-01-04T01:30:57;98723.56;;;-0.25;93.59
44198;BME280;30157;55.512;37.764;2023-01-04T01:33:26;98748.63;;;-0.45;90.35
44198;BME280;30157;55.512;37.764;2023-01-04T01:35:51;98724.88;;;-0.82;88.65
44198;BME280;30157;55.512;37.764;2023-01-04T01:38:19;98683.00;;;-1.28;86.65
44198;BME280;30157;55.512;37.764;2023-01-04T01:40:45;98780.53;;;-0.97;85.20
44198;BME280;30157;55.512;37.764;2023-01-04T01:43:19;98785.13;;;-1.17;83.62
44198;BME280;30157;55.512;37.764;2023-01-04T01:45:51;98744.19;;;-1.59;83.21
44198;BME280;30157;55.512;37.764;2023-01-04T01:48:23;98769.50;;;-1.63;82.47
44198;BME280;30157;55.512;37.764;2023-01-04T01:50:57;98827.63;;;-1.47;83.13
44198;BME280;30157;55.512;37.764;2023-01-04T01:53:25;98811.88;;;-1.65;82.47
44198;BME280;30157;55.512;37.764;2023-01-04T01:55:53;98837.31;;;-1.65;82.11
44198;BME280;30157;55.512;37.764;2023-01-04T01:58:25;98765.41;;;-2.19;82.30
44198;BME280;30157;55.512;37.764;2023-01-04T02:00:53;98812.66;;;-1.97;82.34
44198;BME280;30157;55.512;37.764;2023-01-04T02:03:21;98842.44;;;-1.93;83.32
44198;BME280;30157;55.512;37.764;2023-01-04T02:05:52;98891.34;;;-1.74;83.34
44198;BME280;30157;55.512;37.764;2023-01-04T02:08:21;98891.28;;;-1.76;82.84
44198;BME280;30157;55.512;37.764;2023-01-04T02:10:47;98832.41;;;-2.17;83.15
44198;BME280;30157;55.512;37.764;2023-01-04T02:13:19;98903.00;;;-1.81;83.04
44198;BME280;30157;55.512;37.764;2023-01-04T02:18:25;98633.00;;;-3.68;82.44
44198;BME280;30157;55.512;37.764;2023-01-04T02:20:59;98929.03;;;-1.90;82.97
44198;BME280;30157;55.512;37.764;2023-01-04T02:38:21;98865.81;;;-2.87;80.73
44198;BME280;30157;55.512;37.764;2023-01-04T02:40:57;98993.13;;;-2.27;81.08
44198;BME280;30157;55.512;37.764;2023-01-04T02:43:32;98996.19;;;-2.36;81.24
44198;BME280;30157;55.512;37.764;2023-01-04T02:46:29;99009.94;;;-2.31;81.52
44198;BME280;30157;55.512;37.764;2023-01-04T02:48:59;99014.97;;;-2.32;82.15
44198;BME280;30157;55.512;37.764;2023-01-04T02:51:44;98995.84;;;-2.47;82.52
44198;BME280;30157;55.512;37.764;2023-01-04T02:54:16;99022.69;;;-2.29;82.93
44198;BME280;30157;55.512;37.764;2023-01-04T02:56:58;99026.97;;;-2.28;82.18
44198;BME280;30157;55.512;37.764;2023-01-04T03:10:39;99080.59;;;-2.46;82.78
44198;BME280;30157;55.512;37.764;2023-01-04T03:13:18;99097.59;;;-2.44;83.29
44198;BME280;30157;55.512;37.764;2023-01-04T03:15:54;99072.41;;;-2.62;83.13
44198;BME280;30157;55.512;37.764;2023-01-04T03:18:35;99067.41;;;-2.59;83.18
44198;BME280;30157;55.512;37.764;2023-01-04T03:21:03;99081.81;;;-2.59;81.94
44198;BME280;30157;55.512;37.764;2023-01-04T03:23:34;99114.53;;;-2.44;82.20
44198;BME280;30157;55.512;37.764;2023-01-04T03:26:43;99121.16;;;-2.48;82.99
44198;BME280;30157;55.512;37.764;2023-01-04T03:29:43;99142.44;;;-2.46;82.21
44198;BME280;30157;55.512;37.764;2023-01-04T03:32:39;99062.56;;;-2.99;82.44
44198;BME280;30157;55.512;37.764;2023-01-04T03:35:42;99151.22;;;-2.60;82.29
44198;BME280;30157;55.512;37.764;2023-01-04T03:38:15;99161.03;;;-2.70;82.28
44198;BME280;30157;55.512;37.764;2023-01-04T03:41:12;99038.53;;;-3.53;82.51
44198;BME280;30157;55.512;37.764;2023-01-04T03:44:11;99093.91;;;-3.22;82.90
44198;BME280;30157;55.512;37.764;2023-01-04T03:47:06;99152.44;;;-2.96;82.74
44198;BME280;30157;55.512;37.764;2023-01-04T03:49:56;99072.22;;;-3.57;82.88
44198;BME280;30157;55.512;37.764;2023-01-04T03:52:26;99203.94;;;-2.77;83.06
44198;BME280;30157;55.512;37.764;2023-01-04T03:54:55;99216.75;;;-2.74;83.04
44198;BME280;30157;55.512;37.764;2023-01-04T03:57:22;99186.31;;;-2.95;83.36
44198;BME280;30157;55.512;37.764;2023-01-04T03:59:54;99219.31;;;-2.74;82.94
44198;BME280;30157;55.512;37.764;2023-01-04T04:02:24;99222.53;;;-2.78;82.98
44198;BME280;30157;55.512;37.764;2023-01-04T04:04:49;99212.13;;;-2.84;83.29
44198;BME280;30157;55.512;37.764;2023-01-04T04:07:34;99234.53;;;-2.74;82.64
44198;BME280;30157;55.512;37.764;2023-01-04T04:10:18;99112.13;;;-3.53;81.98
44198;BME280;30157;55.512;37.764;2023-01-04T04:12:43;99239.31;;;-2.82;82.12
44198;BME280;30157;55.512;37.764;2023-01-04T04:15:09;99151.50;;;-3.42;82.13
44198;BME280;30157;55.512;37.764;2023-01-04T04:17:35;99232.06;;;-2.94;82.63
44198;BME280;30157;55.512;37.764;2023-01-04T04:20:01;99247.47;;;-2.91;82.24
44198;BME280;30157;55.512;37.764;2023-01-04T04:22:27;99241.63;;;-2.88;82.88
44198;BME280;30157;55.512;37.764;2023-01-04T04:24:52;99256.34;;;-2.79;82.12
44198;BME280;30157;55.512;37.764;2023-01-04T04:27:18;99189.25;;;-3.28;81.79
44198;BME280;30157;55.512;37.764;2023-01-04T04:29:43;99280.16;;;-2.77;81.94
44198;BME280;30157;55.512;37.764;2023-01-04T04:32:09;99282.69;;;-2.77;81.97
44198;BME280;30157;55.512;37.764;2023-01-04T04:34:35;99277.63;;;-2.77;81.86
44198;BME280;30157;55.512;37.764;2023-01-04T04:37:01;99278.53;;;-2.75;81.79
44198;BME280;30157;55.512;37.764;2023-01-04T04:39:27;99291.28;;;-2.74;81.78
44198;BME280;30157;55.512;37.764;2023-01-04T04:41:52;99286.34;;;-2.71;82.12
44198;BME280;30157;55.512;37.764;2023-01-04T04:44:19;99247.25;;;-2.95;80.97
44198;BME280;30157;55.512;37.764;2023-01-04T04:46:46;99293.03;;;-2.73;81.95
44198;BME280;30157;55.512;37.764;2023-01-04T04:49:13;99302.44;;;-2.70;81.78
44198;BME280;30157;55.512;37.764;2023-01-04T04:51:40;99312.66;;;-2.68;82.36
44198;BME280;30157;55.512;37.764;2023-01-04T04:54:07;99317.88;;;-2.65;81.75
44198;BME280;30157;55.512;37.764;2023-01-04T04:56:33;99316.16;;;-2.66;81.83
44198;BME280;30157;55.512;37.764;2023-01-04T04:59:02;99322.88;;;-2.67;82.22
44198;BME280;30157;55.512;37.764;2023-01-04T05:01:28;99329.88;;;-2.61;82.67
44198;BME280;30157;55.512;37.764;2023-01-04T05:03:55;99315.31;;;-2.65;82.72
44198;BME280;30157;55.512;37.764;2023-01-04T05:06:20;99336.38;;;-2.68;82.08
44198;BME280;30157;55.512;37.764;2023-01-04T05:08:46;99258.28;;;-3.16;82.15
44198;BME280;30157;55.512;37.764;2023-01-04T05:11:12;99328.16;;;-2.83;82.49
44198;BME280;30157;55.512;37.764;2023-01-04T05:13:38;99233.44;;;-3.44;82.16
44198;BME280;30157;55.512;37.764;2023-01-04T05:16:05;99356.59;;;-2.71;82.70
44198;BME280;30157;55.512;37.764;2023-01-04T05:18:31;99254.13;;;-3.35;82.62
44198;BME280;30157;55.512;37.764;2023-01-04T05:20:57;99388.63;;;-2.75;83.13
44198;BME280;30157;55.512;37.764;2023-01-04T05:23:23;99355.72;;;-2.93;82.99
44198;BME280;30157;55.512;37.764;2023-01-04T05:25:59;99284.31;;;-3.41;82.69
44198;BME280;30157;55.512;37.764;2023-01-04T05:28:25;99395.63;;;-2.90;82.88
44198;BME280;30157;55.512;37.764;2023-01-04T05:30:52;99402.22;;;-2.94;82.84
44198;BME280;30157;55.512;37.764;2023-01-04T05:33:28;99297.16;;;-3.58;82.59
44198;BME280;30157;55.512;37.764;2023-01-04T05:35:55;99407.97;;;-2.98;82.77
44198;BME280;30157;55.512;37.764;2023-01-04T05:38:22;99305.59;;;-3.57;82.43
44198;BME280;30157;55.512;37.764;2023-01-04T05:40:48;99406.78;;;-3.06;83.06
44198;BME280;30157;55.512;37.764;2023-01-04T05:43:14;99412.16;;;-3.00;82.79
44198;BME280;30157;55.512;37.764;2023-01-04T05:45:42;99421.41;;;-3.00;82.82
44198;BME280;30157;55.512;37.764;2023-01-04T05:48:09;99432.69;;;-2.94;83.46
44198;BME280;30157;55.512;37.764;2023-01-04T05:50:35;99415.19;;;-3.07;83.40
44198;BME280;30157;55.512;37.764;2023-01-04T05:53:04;99330.19;;;-3.56;83.54
44198;BME280;30157;55.512;37.764;2023-01-04T05:55:30;99450.47;;;-2.94;83.52
44198;BME280;30157;55.512;37.764;2023-01-04T05:57:56;99354.78;;;-3.55;83.05
44198;BME280;30157;55.512;37.764;2023-01-04T06:00:22;99347.34;;;-3.70;82.79
44198;BME280;30157;55.512;37.764;2023-01-04T06:02:48;99438.72;;;-3.31;82.81
44198;BME280;30157;55.512;37.764;2023-01-04T06:05:13;99430.97;;;-3.34;82.90
44198;BME280;30157;55.512;37.764;2023-01-04T06:07:39;99400.38;;;-3.57;82.79
44198;BME280;30157;55.512;37.764;2023-01-04T06:10:10;99374.28;;;-3.72;82.94
44198;BME280;30157;55.512;37.764;2023-01-04T06:12:37;99434.09;;;-3.40;82.58
44198;BME280;30157;55.512;37.764;2023-01-04T06:15:04;99479.16;;;-3.16;82.31
44198;BME280;30157;55.512;37.764;2023-01-04T06:17:31;99463.22;;;-3.31;82.34
44198;BME280;30157;55.512;37.764;2023-01-04T06:19:57;99491.31;;;-3.09;82.33
44198;BME280;30157;55.512;37.764;2023-01-04T06:22:23;99490.78;;;-3.21;82.27
44198;BME280;30157;55.512;37.764;2023-01-04T06:24:51;99507.94;;;-3.15;82.09
44198;BME280;30157;55.512;37.764;2023-01-04T06:27:17;99519.34;;;-3.25;82.46
44198;BME280;30157;55.512;37.764;2023-01-04T06:29:43;99455.75;;;-3.66;82.42
44198;BME280;30157;55.512;37.764;2023-01-04T06:32:09;99523.56;;;-3.26;82.19
44198;BME280;30157;55.512;37.764;2023-01-04T06:34:34;99522.69;;;-3.26;82.07
44198;BME280;30157;55.512;37.764;2023-01-04T06:37:00;99408.69;;;-3.97;81.43
44198;BME280;30157;55.512;37.764;2023-01-04T06:39:26;99462.94;;;-3.75;82.19
44198;BME280;30157;55.512;37.764;2023-01-04T06:41:52;99559.44;;;-3.18;81.67
44198;BME280;30157;55.512;37.764;2023-01-04T06:44:18;99522.25;;;-3.35;80.80
44198;BME280;30157;55.512;37.764;2023-01-04T06:46:43;99509.00;;;-3.48;80.33
44198;BME280;30157;55.512;37.764;2023-01-04T06:49:09;99505.63;;;-3.48;79.62
44198;BME280;30157;55.512;37.764;2023-01-04T06:51:35;99494.91;;;-3.61;78.76
44198;BME280;30157;55.512;37.764;2023-01-04T06:54:00;99581.13;;;-3.25;79.23
44198;BME280;30157;55.512;37.764;2023-01-04T06:56:26;99574.91;;;-3.31;78.75
44198;BME280;30157;55.512;37.764;2023-01-04T06:58:52;99462.28;;;-4.07;78.93
44198;BME280;30157;55.512;37.764;2023-01-04T07:01:18;99550.63;;;-3.62;79.59
44198;BME280;30157;55.512;37.764;2023-01-04T07:03:43;99591.16;;;-3.46;80.26
44198;BME280;30157;55.512;37.764;2023-01-04T07:06:09;99597.09;;;-3.45;80.33
44198;BME280;30157;55.512;37.764;2023-01-04T07:08:35;99595.53;;;-3.43;80.48
44198;BME280;30157;55.512;37.764;2023-01-04T07:11:01;99587.69;;;-3.48;80.23
44198;BME280;30157;55.512;37.764;2023-01-04T07:13:27;99566.88;;;-3.59;79.89
44198;BME280;30157;55.512;37.764;2023-01-04T07:15:53;99602.75;;;-3.33;80.00
44198;BME280;30157;55.512;37.764;2023-01-04T07:18:19;99609.59;;;-3.32;80.19
44198;BME280;30157;55.512;37.764;2023-01-04T07:20:44;99599.50;;;-3.30;80.57
44198;BME280;30157;55.512;37.764;2023-01-04T07:23:10;99609.94;;;-3.24;80.37
44198;BME280;30157;55.512;37.764;2023-01-04T07:25:36;99609.28;;;-3.20;80.86
44198;BME280;30157;55.512;37.764;2023-01-04T07:28:02;99481.31;;;-3.97;80.19
44198;BME280;30157;55.512;37.764;2023-01-04T07:30:27;99617.13;;;-3.33;79.99
44198;BME280;30157;55.512;37.764;2023-01-04T07:32:54;99598.41;;;-3.53;80.18
44198;BME280;30157;55.512;37.764;2023-01-04T07:35:20;99541.19;;;-4.01;79.77
44198;BME280;30157;55.512;37.764;2023-01-04T07:37:46;99600.84;;;-3.73;80.66
44198;BME280;30157;55.512;37.764;2023-01-04T07:40:12;99639.66;;;-3.40;80.32
44198;BME280;30157;55.512;37.764;2023-01-04T07:42:38;99658.78;;;-3.30;79.94
44198;BME280;30157;55.512;37.764;2023-01-04T07:45:04;99653.81;;;-3.27;79.90
44198;BME280;30157;55.512;37.764;2023-01-04T07:47:31;99646.75;;;-3.50;79.73
44198;BME280;30157;55.512;37.764;2023-01-04T07:49:57;99669.72;;;-3.31;79.65
44198;BME280;30157;55.512;37.764;2023-01-04T07:52:23;99674.47;;;-3.37;80.10
44198;BME280;30157;55.512;37.764;2023-01-04T07:54:49;99661.56;;;-3.42;80.40
44198;BME280;30157;55.512;37.764;2023-01-04T07:57:14;99678.53;;;-3.41;80.11
44198;BME280;30157;55.512;37.764;2023-01-04T07:59:40;99585.38;;;-3.96;80.21
44198;BME280;30157;55.512;37.764;2023-01-04T08:02:09;99569.06;;;-4.01;80.39
44198;BME280;30157;55.512;37.764;2023-01-04T08:04:35;99696.84;;;-3.30;80.20
44198;BME280;30157;55.512;37.764;2023-01-04T08:07:00;99624.91;;;-3.65;79.49
44198;BME280;30157;55.512;37.764;2023-01-04T08:09:26;99653.72;;;-3.64;78.79
44198;BME280;30157;55.512;37.764;2023-01-04T08:11:52;99584.81;;;-4.07;79.60
44198;BME280;30157;55.512;37.764;2023-01-04T08:14:17;99656.00;;;-3.69;79.49
44198;BME280;30157;55.512;37.764;2023-01-04T08:16:43;99650.06;;;-3.69;79.68
44198;BME280;30157;55.512;37.764;2023-01-04T08:19:13;99698.75;;;-3.42;78.79
44198;BME280;30157;55.512;37.764;2023-01-04T08:21:39;99681.91;;;-3.58;79.20
44198;BME280;30157;55.512;37.764;2023-01-04T08:24:06;99680.47;;;-3.53;79.65
44198;BME280;30157;55.512;37.764;2023-01-04T08:26:32;99700.56;;;-3.40;79.38
44198;BME280;30157;55.512;37.764;2023-01-04T08:28:58;99708.50;;;-3.33;79.03
44198;BME280;30157;55.512;37.764;2023-01-04T08:31:28;99705.25;;;-3.31;79.55
44198;BME280;30157;55.512;37.764;2023-01-04T08:33:59;99715.03;;;-3.21;79.87
44198;BME280;30157;55.512;37.764;2023-01-04T08:36:30;99595.25;;;-3.84;79.53
44198;BME280;30157;55.512;37.764;2023-01-04T08:38:59;99716.91;;;-3.16;79.44
44198;BME280;30157;55.512;37.764;2023-01-04T08:41:25;99717.03;;;-3.15;79.42
44198;BME280;30157;55.512;37.764;2023-01-04T08:43:51;99691.66;;;-3.31;79.83
44198;BME280;30157;55.512;37.764;2023-01-04T08:46:16;99737.53;;;-3.10;79.64
44198;BME280;30157;55.512;37.764;2023-01-04T08:48:51;99730.00;;;-3.09;79.44
44198;BME280;30157;55.512;37.764;2023-01-04T08:51:17;99592.25;;;-3.93;79.50
44198;BME280;30157;55.512;37.764;2023-01-04T08:53:43;99682.34;;;-3.49;78.91
44198;BME280;30157;55.512;37.764;2023-01-04T08:56:09;99697.31;;;-3.37;79.04
44198;BME280;30157;55.512;37.764;2023-01-04T08:58:37;99620.59;;;-3.84;78.97
44198;BME280;30157;55.512;37.764;2023-01-04T09:01:08;99677.13;;;-3.52;78.59
44198;BME280;30157;55.512;37.764;2023-01-04T09:03:35;99726.66;;;-3.26;78.24
44198;BME280;30157;55.512;37.764;2023-01-04T09:06:07;99717.69;;;-3.35;78.30
44198;BME280;30157;55.512;37.764;2023-01-04T09:08:34;99727.19;;;-3.31;78.84
44198;BME280;30157;55.512;37.764;2023-01-04T09:11:08;99539.13;;;-4.43;78.33
44198;BME280;30157;55.512;37.764;2023-01-04T09:13:35;99734.91;;;-3.30;78.39
44198;BME280;30157;55.512;37.764;2023-01-04T09:16:03;99653.56;;;-3.84;78.17
44198;BME280;30157;55.512;37.764;2023-01-04T09:18:30;99724.94;;;-3.43;78.02
44198;BME280;30157;55.512;37.764;2023-01-04T09:20:56;99746.34;;;-3.38;78.21
44198;BME280;30157;55.512;37.764;2023-01-04T09:23:22;99745.41;;;-3.40;78.58
44198;BME280;30157;55.512;37.764;2023-01-04T09:25:49;99736.91;;;-3.41;77.68
44198;BME280;30157;55.512;37.764;2023-01-04T09:28:14;99687.16;;;-3.72;77.31
44198;BME280;30157;55.512;37.764;2023-01-04T09:30:40;99637.91;;;-4.10;77.04
44198;BME280;30157;55.512;37.764;2023-01-04T09:33:06;99741.75;;;-3.45;76.15
44198;BME280;30157;55.512;37.764;2023-01-04T09:35:31;99744.88;;;-3.51;76.72
44198;BME280;30157;55.512;37.764;2023-01-04T09:37:58;99741.38;;;-3.53;76.83
44198;BME280;30157;55.512;37.764;2023-01-04T09:40:30;99729.03;;;-3.63;76.30
44198;BME280;30157;55.512;37.764;2023-01-04T09:43:01;99723.25;;;-3.61;75.97
44198;BME280;30157;55.512;37.764;2023-01-04T09:45:28;99717.28;;;-3.61;75.96
44198;BME280;30157;55.512;37.764;2023-01-04T09:48:04;99751.06;;;-3.46;75.61
44198;BME280;30157;55.512;37.764;2023-01-04T09:51:04;99654.16;;;-4.06;75.65
44198;BME280;30157;55.512;37.764;2023-01-04T09:53:44;99745.66;;;-3.52;76.00
44198;BME280;30157;55.512;37.764;2023-01-04T09:56:26;99624.41;;;-4.27;75.58
44198;BME280;30157;55.512;37.764;2023-01-04T09:58:53;99661.13;;;-4.02;75.51
44198;BME280;30157;55.512;37.764;2023-01-04T10:01:23;99658.53;;;-4.03;75.21
44198;BME280;30157;55.512;37.764;2023-01-04T10:04:01;99754.53;;;-3.44;75.38
44198;BME280;30157;55.512;37.764;2023-01-04T10:06:32;99638.88;;;-4.08;75.31
44198;BME280;30157;55.512;37.764;2023-01-04T10:09:02;99745.16;;;-3.45;74.96
44198;BME280;30157;55.512;37.764;2023-01-04T10:20:17;99750.56;;;-3.39;75.63
44198;BME280;30157;55.512;37.764;2023-01-04T10:28:02;99707.00;;;-3.46;74.84
44198;BME280;30157;55.512;37.764;2023-01-04T10:31:21;99739.41;;;-3.24;74.79
44198;BME280;30157;55.512;37.764;2023-01-04T10:33:31;99721.66;;;-3.41;74.05
44198;BME280;30157;55.512;37.764;2023-01-04T10:35:59;99624.84;;;-4.01;74.30
44198;BME280;30157;55.512;37.764;2023-01-04T10:38:31;99737.28;;;-3.33;74.80
44198;BME280;30157;55.512;37.764;2023-01-04T10:41:04;99740.84;;;-3.29;74.82
44198;BME280;30157;55.512;37.764;2023-01-04T10:43:35;99745.06;;;-3.30;74.38
44198;BME280;30157;55.512;37.764;2023-01-04T10:46:20;99743.25;;;-3.32;74.36
44198;BME280;30157;55.512;37.764;2023-01-04T10:49:08;99743.53;;;-3.26;74.63
44198;BME280;30157;55.512;37.764;2023-01-04T10:51:58;99739.56;;;-3.21;75.10
44198;BME280;30157;55.512;37.764;2023-01-04T10:59:48;99733.56;;;-3.05;75.23
44198;BME280;30157;55.512;37.764;2023-01-04T11:02:25;99741.47;;;-2.99;75.03
44198;BME280;30157;55.512;37.764;2023-01-04T11:05:07;99736.38;;;-2.99;74.88
44198;BME280;30157;55.512;37.764;2023-01-04T11:10:25;99722.09;;;-3.15;75.27
44198;BME280;30157;55.512;37.764;2023-01-04T11:12:53;99721.13;;;-3.17;74.98
44198;BME280;30157;55.512;37.764;2023-01-04T11:15:19;99732.16;;;-3.16;75.19
44198;BME280;30157;55.512;37.764;2023-01-04T11:17:46;99732.09;;;-3.18;75.83
44198;BME280;30157;55.512;37.764;2023-01-04T11:20:12;99640.78;;;-3.69;75.40
44198;BME280;30157;55.512;37.764;2023-01-04T11:22:42;99719.31;;;-3.19;75.48
44198;BME280;30157;55.512;37.764;2023-01-04T11:25:19;99728.22;;;-3.28;74.39
44198;BME280;30157;55.512;37.764;2023-01-04T11:28:15;99737.16;;;-3.18;74.69
44198;BME280;30157;55.512;37.764;2023-01-04T11:38:57;99740.22;;;-3.25;73.87
44198;BME280;30157;55.512;37.764;2023-01-04T11:41:24;99722.50;;;-3.42;73.97
44198;BME280;30157;55.512;37.764;2023-01-04T11:46:23;99652.28;;;-3.76;74.43
44198;BME280;30157;55.512;37.764;2023-01-04T11:48:50;99736.72;;;-3.27;74.27
44198;BME280;30157;55.512;37.764;2023-01-04T11:57:04;99759.88;;;-3.21;74.48
44198;BME280;30157;55.512;37.764;2023-01-04T11:59:35;99665.78;;;-3.77;74.53
44198;BME280;30157;55.512;37.764;2023-01-04T12:02:30;99761.56;;;-3.22;74.77
44198;BME280;30157;55.512;37.764;2023-01-04T12:04:55;99748.47;;;-3.29;74.87
44198;BME280;30157;55.512;37.764;2023-01-04T12:07:34;99757.19;;;-3.24;75.07
44198;BME280;30157;55.512;37.764;2023-01-04T12:10:06;99753.47;;;-3.31;75.50
44198;BME280;30157;55.512;37.764;2023-01-04T12:12:37;99656.69;;;-3.90;75.70
44198;BME280;30157;55.512;37.764;2023-01-04T12:15:15;99624.94;;;-4.16;75.68
44198;BME280;30157;55.512;37.764;2023-01-04T12:18:03;99639.81;;;-4.06;76.30
44198;BME280;30157;55.512;37.764;2023-01-04T12:20:32;99714.19;;;-3.72;76.33
44198;BME280;30157;55.512;37.764;2023-01-04T12:22:58;99759.84;;;-3.72;76.57
44198;BME280;30157;55.512;37.764;2023-01-04T12:25:34;99759.94;;;-3.71;76.79
44198;BME280;30157;55.512;37.764;2023-01-04T12:28:02;99467.34;;;-5.42;76.54
44198;BME280;30157;55.512;37.764;2023-01-04T12:41:24;99681.16;;;-4.40;76.23
44198;BME280;30157;55.512;37.764;2023-01-04T12:50:21;99764.47;;;-3.81;75.45
44198;BME280;30157;55.512;37.764;2023-01-04T12:53:01;99743.69;;;-3.91;74.99
44198;BME280;30157;55.512;37.764;2023-01-04T12:57:57;99744.94;;;-3.82;75.16
44198;BME280;30157;55.512;37.764;2023-01-04T13:05:54;99765.56;;;-3.76;75.78
44198;BME280;30157;55.512;37.764;2023-01-04T13:08:23;99770.72;;;-3.75;75.68
44198;BME280;30157;55.512;37.764;2023-01-04T13:10:54;99679.13;;;-4.30;76.42
44198;BME280;30157;55.512;37.764;2023-01-04T13:13:35;99772.63;;;-3.71;76.63
44198;BME280;30157;55.512;37.764;2023-01-04T13:16:26;99770.88;;;-3.72;76.28
44198;BME280;30157;55.512;37.764;2023-01-04T13:19:00;99766.13;;;-3.82;76.61
44198;BME280;30157;55.512;37.764;2023-01-04T13:21:37;99559.66;;;-5.02;76.86
44198;BME280;30157;55.512;37.764;2023-01-04T13:24:13;99727.84;;;-4.03;76.84
44198;BME280;30157;55.512;37.764;2023-01-04T13:26:44;99769.03;;;-3.91;77.10
44198;BME280;30157;55.512;37.764;2023-01-04T13:29:20;99786.41;;;-3.98;77.64
44198;BME280;30157;55.512;37.764;2023-01-04T13:31:58;99740.38;;;-4.38;78.03
44198;BME280;30157;55.512;37.764;2023-01-04T13:34:33;99768.06;;;-4.26;78.04
44198;BME280;30157;55.512;37.764;2023-01-04T13:39:36;99770.00;;;-4.05;77.86
44198;BME280;30157;55.512;37.764;2023-01-04T13:42:03;99755.81;;;-4.01;77.41
44198;BME280;30157;55.512;37.764;2023-01-04T13:44:57;99641.88;;;-4.64;77.41
44198;BME280;30157;55.512;37.764;2023-01-04T13:47:33;99755.50;;;-3.91;77.00
44198;BME280;30157;55.512;37.764;2023-01-04T13:50:00;99755.66;;;-4.05;77.77
44198;BME280;30157;55.512;37.764;2023-01-04T13:52:27;99755.16;;;-4.14;77.60
44198;BME280;30157;55.512;37.764;2023-01-04T13:57:36;99758.19;;;-4.21;78.36
44198;BME280;30157;55.512;37.764;2023-01-04T14:00:05;99641.03;;;-4.96;78.87
44198;BME280;30157;55.512;37.764;2023-01-04T14:02:36;99675.56;;;-4.82;78.88
44198;BME280;30157;55.512;37.764;2023-01-04T14:05:02;99764.50;;;-4.29;78.93
44198;BME280;30157;55.512;37.764;2023-01-04T14:07:29;99760.63;;;-4.23;78.99
44198;BME280;30157;55.512;37.764;2023-01-04T14:10:00;99765.31;;;-4.14;78.89
44198;BME280;30157;55.512;37.764;2023-01-04T14:12:28;99752.56;;;-4.15;78.35
44198;BME280;30157;55.512;37.764;2023-01-04T14:14:57;99729.81;;;-4.30;78.20
44198;BME280;30157;55.512;37.764;2023-01-04T14:30:45;99745.16;;;-4.27;79.17
44198;BME280;30157;55.512;37.764;2023-01-04T14:35:38;99748.81;;;-4.22;79.86
44198;BME280;30157;55.512;37.764;2023-01-04T14:38:12;99697.63;;;-4.48;79.69
44198;BME280;30157;55.512;37.764;2023-01-04T14:40:40;99734.41;;;-4.23;79.41
44198;BME280;30157;55.512;37.764;2023-01-04T14:43:33;99749.31;;;-4.13;79.32
44198;BME280;30157;55.512;37.764;2023-01-04T14:46:00;99741.78;;;-4.11;78.98
44198;BME280;30157;55.512;37.764;2023-01-04T14:48:30;99602.75;;;-4.86;79.02
44198;BME280;30157;55.512;37.764;2023-01-04T14:50:57;99736.50;;;-3.99;79.04
44198;BME280;30157;55.512;37.764;2023-01-04T14:53:24;99624.38;;;-4.60;79.43
44198;BME280;30157;55.512;37.764;2023-01-04T14:55:50;99729.03;;;-3.96;79.56
44198;BME280;30157;55.512;37.764;2023-01-04T14:58:15;99612.56;;;-4.59;79.58